sensor_id;sensor_type;location;lat;lon;timestamp;pressure;altitude;pressure_sealevel;temperature;humidity
28306;BME280;7516;43.570;1.448;2023-04-08T00:00:02;99583.28;;;11.16;53.25
28306;BME280;7516;43.570;1.448;2023-04-08T00:02:31;99579.72;;;11.09;53.29
28306;BME280;7516;43.570;1.448;2023-04-08T00:04:59;99580.19;;;11.13;53.56
28306;BME280;7516;43.570;1.448;2023-04-08T00:07:28;99582.06;;;11.04;54.00
28306;BME280;7516;43.570;1.448;2023-04-08T00:09:55;99586.16;;;11.07;54.16
28306;BME280;7516;43.570;1.448;2023-04-08T00:12:23;99584.06;;;11.02;54.29
28306;BME280;7516;43.570;1.448;2023-04-08T00:14:50;99589.03;;;10.97;54.41
28306;BME280;7516;43.570;1.448;2023-04-08T00:17:18;99595.34;;;10.88;55.22
28306;BME280;7516;43.570;1.448;2023-04-08T00:19:46;99587.00;;;10.84;55.63
28306;BME280;7516;43.570;1.448;2023-04-08T00:22:13;99581.94;;;10.83;55.26
28306;BME280;7516;43.570;1.448;2023-04-08T00:24:42;99584.09;;;10.79;56.01
28306;BME280;7516;43.570;1.448;2023-04-08T00:27:09;99579.91;;;10.70;56.44
28306;BME280;7516;43.570;1.448;2023-04-08T00:29:37;99586.31;;;10.68;56.60
28306;BME280;7516;43.570;1.448;2023-04-08T00:32:04;99586.03;;;10.63;57.10
28306;BME280;7516;43.570;1.448;2023-04-08T00:34:32;99578.84;;;10.56;57.02
28306;BME280;7516;43.570;1.448;2023-04-08T00:36:59;99582.84;;;10.52;57.71
28306;BME280;7516;43.570;1.448;2023-04-08T00:39:27;99581.69;;;10.55;58.02
28306;BME280;7516;43.570;1.448;2023-04-08T00:41:56;99583.53;;;10.46;58.38
28306;BME280;7516;43.570;1.448;2023-04-08T00:44:23;99590.59;;;10.46;58.43
28306;BME280;7516;43.570;1.448;2023-04-08T00:46:51;99583.53;;;10.46;58.07
28306;BME280;7516;43.570;1.448;2023-04-08T00:49:18;99589.00;;;10.37;58.35
28306;BME280;7516;43.570;1.448;2023-04-08T00:51:46;99585.84;;;10.41;58.88
28306;BME280;7516;43.570;1.448;2023-04-08T00:54:13;99585.84;;;10.41;59.75
28306;BME280;7516;43.570;1.448;2023-04-08T00:56:43;99588.63;;;10.40;59.96
28306;BME280;7516;43.570;1.448;2023-04-08T00:59:12;99597.03;;;10.35;59.67
28306;BME280;7516;43.570;1.448;2023-04-08T01:01:58;99601.47;;;10.35;59.59
28306;BME280;7516;43.570;1.448;2023-04-08T01:04:32;99595.72;;;10.31;60.96
28306;BME280;7516;43.570;1.448;2023-04-08T01:07:10;99593.81;;;10.25;60.55
28306;BME280;7516;43.570;1.448;2023-04-08T01:09:44;99596.16;;;10.20;60.98
28306;BME280;7516;43.570;1.448;2023-04-08T01:12:20;99594.69;;;10.17;62.21
28306;BME280;7516;43.570;1.448;2023-04-08T01:14:54;99592.69;;;10.11;61.45
28306;BME280;7516;43.570;1.448;2023-04-08T01:17:23;99594.53;;;10.11;62.65
28306;BME280;7516;43.570;1.448;2023-04-08T01:19:51;99589.47;;;10.09;63.00
28306;BME280;7516;43.570;1.448;2023-04-08T01:22:28;99587.06;;;10.00;62.97
28306;BME280;7516;43.570;1.448;2023-04-08T01:25:04;99581.16;;;9.98;63.00
28306;BME280;7516;43.570;1.448;2023-04-08T01:27:35;99584.13;;;9.95;62.38
28306;BME280;7516;43.570;1.448;2023-04-08T01:30:06;99583.81;;;9.90;63.95
28306;BME280;7516;43.570;1.448;2023-04-08T01:32:34;99584.53;;;9.84;63.74
28306;BME280;7516;43.570;1.448;2023-04-08T01:35:03;99588.78;;;9.85;63.78
28306;BME280;7516;43.570;1.448;2023-04-08T01:37:32;99590.38;;;9.86;64.68
28306;BME280;7516;43.570;1.448;2023-04-08T01:40:01;99593.84;;;9.78;65.02
28306;BME280;7516;43.570;1.448;2023-04-08T01:42:29;99585.00;;;9.79;65.07
28306;BME280;7516;43.570;1.448;2023-04-08T01:45:00;99589.78;;;9.75;64.81
28306;BME280;7516;43.570;1.448;2023-04-08T01:47:30;99590.94;;;9.73;65.11
28306;BME280;7516;43.570;1.448;2023-04-08T01:49:59;99593.75;;;9.63;66.44
28306;BME280;7516;43.570;1.448;2023-04-08T01:52:28;99597.66;;;9.59;66.11
28306;BME280;7516;43.570;1.448;2023-04-08T01:54:56;99587.72;;;9.55;66.79
28306;BME280;7516;43.570;1.448;2023-04-08T01:57:26;99593.28;;;9.52;66.03
28306;BME280;7516;43.570;1.448;2023-04-08T02:00:01;99589.56;;;9.46;66.50
28306;BME280;7516;43.570;1.448;2023-04-08T02:02:32;99585.63;;;9.42;65.37
28306;BME280;7516;43.570;1.448;2023-04-08T02:05:02;99585.00;;;9.40;67.03
28306;BME280;7516;43.570;1.448;2023-04-08T02:07:30;99583.38;;;9.39;67.18
28306;BME280;7516;43.570;1.448;2023-04-08T02:09:57;99580.25;;;9.35;65.96
28306;BME280;7516;43.570;1.448;2023-04-08T02:12:25;99578.47;;;9.36;66.68
28306;BME280;7516;43.570;1.448;2023-04-08T02:14:54;99573.88;;;9.38;66.45
28306;BME280;7516;43.570;1.448;2023-04-08T02:17:30;99576.81;;;9.35;68.07
28306;BME280;7516;43.570;1.448;2023-04-08T02:20:04;99577.81;;;9.26;67.88
28306;BME280;7516;43.570;1.448;2023-04-08T02:22:39;99582.41;;;9.24;67.76
28306;BME280;7516;43.570;1.448;2023-04-08T02:25:13;99577.38;;;9.14;67.43
28306;BME280;7516;43.570;1.448;2023-04-08T02:27:42;99593.88;;;9.23;66.81
28306;BME280;7516;43.570;1.448;2023-04-08T02:30:11;99583.06;;;9.18;66.76
28306;BME280;7516;43.570;1.448;2023-04-08T02:32:41;99586.03;;;9.15;67.77
28306;BME280;7516;43.570;1.448;2023-04-08T02:35:12;99595.19;;;9.11;67.04
28306;BME280;7516;43.570;1.448;2023-04-08T02:37:40;99583.25;;;9.08;67.85
28306;BME280;7516;43.570;1.448;2023-04-08T02:40:22;99583.41;;;9.06;67.54
28306;BME280;7516;43.570;1.448;2023-04-08T02:42:50;99589.97;;;9.02;67.82
28306;BME280;7516;43.570;1.448;2023-04-08T02:45:18;99585.72;;;9.01;69.10
28306;BME280;7516;43.570;1.448;2023-04-08T02:47:47;99578.19;;;8.98;67.75
28306;BME280;7516;43.570;1.448;2023-04-08T02:50:14;99575.78;;;8.97;67.83
28306;BME280;7516;43.570;1.448;2023-04-08T02:52:42;99586.38;;;8.95;68.97
28306;BME280;7516;43.570;1.448;2023-04-08T02:55:10;99580.34;;;8.95;69.11
28306;BME280;7516;43.570;1.448;2023-04-08T02:57:39;99580.00;;;8.98;68.45
28306;BME280;7516;43.570;1.448;2023-04-08T03:00:08;99574.47;;;8.93;68.67
28306;BME280;7516;43.570;1.448;2023-04-08T03:02:35;99580.81;;;8.90;70.50
28306;BME280;7516;43.570;1.448;2023-04-08T03:05:05;99578.88;;;8.84;69.80
28306;BME280;7516;43.570;1.448;2023-04-08T03:07:33;99580.50;;;8.77;68.75
28306;BME280;7516;43.570;1.448;2023-04-08T03:10:01;99584.25;;;8.75;69.07
28306;BME280;7516;43.570;1.448;2023-04-08T03:12:28;99582.78;;;8.72;70.02
28306;BME280;7516;43.570;1.448;2023-04-08T03:14:56;99588.50;;;8.67;70.15
28306;BME280;7516;43.570;1.448;2023-04-08T03:17:24;99580.84;;;8.66;70.12
28306;BME280;7516;43.570;1.448;2023-04-08T03:19:51;99580.00;;;8.65;71.13
28306;BME280;7516;43.570;1.448;2023-04-08T03:22:20;99574.28;;;8.62;70.39
28306;BME280;7516;43.570;1.448;2023-04-08T03:24:49;99577.91;;;8.61;71.32
28306;BME280;7516;43.570;1.448;2023-04-08T03:27:17;99579.03;;;8.58;69.90
28306;BME280;7516;43.570;1.448;2023-04-08T03:29:44;99583.91;;;8.53;71.62
28306;BME280;7516;43.570;1.448;2023-04-08T03:32:12;99579.19;;;8.49;71.26
28306;BME280;7516;43.570;1.448;2023-04-08T03:34:39;99589.13;;;8.45;71.23
28306;BME280;7516;43.570;1.448;2023-04-08T03:37:07;99595.84;;;8.48;72.15
28306;BME280;7516;43.570;1.448;2023-04-08T03:39:36;99591.25;;;8.42;72.12
28306;BME280;7516;43.570;1.448;2023-04-08T03:42:04;99597.78;;;8.38;71.81
28306;BME280;7516;43.570;1.448;2023-04-08T03:44:31;99597.59;;;8.31;71.65
28306;BME280;7516;43.570;1.448;2023-04-08T03:46:59;99594.28;;;8.29;71.86
28306;BME280;7516;43.570;1.448;2023-04-08T03:49:26;99591.22;;;8.25;71.84
28306;BME280;7516;43.570;1.448;2023-04-08T03:51:54;99587.78;;;8.25;72.54
28306;BME280;7516;43.570;1.448;2023-04-08T03:54:21;99593.00;;;8.25;71.93
28306;BME280;7516;43.570;1.448;2023-04-08T03:56:50;99585.63;;;8.20;72.03
28306;BME280;7516;43.570;1.448;2023-04-08T03:59:18;99585.47;;;8.14;72.81
28306;BME280;7516;43.570;1.448;2023-04-08T04:01:45;99578.91;;;8.10;73.57
28306;BME280;7516;43.570;1.448;2023-04-08T04:04:13;99580.72;;;8.09;73.60
28306;BME280;7516;43.570;1.448;2023-04-08T04:06:41;99586.09;;;8.08;74.25
28306;BME280;7516;43.570;1.448;2023-04-08T04:09:08;99581.03;;;8.06;73.17
28306;BME280;7516;43.570;1.448;2023-04-08T04:11:36;99575.00;;;8.06;72.99
28306;BME280;7516;43.570;1.448;2023-04-08T04:14:05;99573.19;;;7.98;73.12
28306;BME280;7516;43.570;1.448;2023-04-08T04:16:32;99579.38;;;7.97;73.20
28306;BME280;7516;43.570;1.448;2023-04-08T04:19:00;99576.75;;;7.89;74.60
28306;BME280;7516;43.570;1.448;2023-04-08T04:21:27;99577.88;;;7.86;74.32
28306;BME280;7516;43.570;1.448;2023-04-08T04:23:55;99576.25;;;7.85;74.16
28306;BME280;7516;43.570;1.448;2023-04-08T04:26:22;99576.56;;;7.82;75.04
28306;BME280;7516;43.570;1.448;2023-04-08T04:28:49;99577.69;;;7.80;74.11
28306;BME280;7516;43.570;1.448;2023-04-08T04:31:22;99581.72;;;7.74;74.16
28306;BME280;7516;43.570;1.448;2023-04-08T04:33:51;99583.19;;;7.69;75.47
28306;BME280;7516;43.570;1.448;2023-04-08T04:36:18;99578.78;;;7.69;75.66
28306;BME280;7516;43.570;1.448;2023-04-08T04:38:46;99588.56;;;7.67;75.07
28306;BME280;7516;43.570;1.448;2023-04-08T04:41:13;99584.50;;;7.65;76.01
28306;BME280;7516;43.570;1.448;2023-04-08T04:43:41;99589.84;;;7.63;75.43
28306;BME280;7516;43.570;1.448;2023-04-08T04:46:08;99602.38;;;7.60;75.22
28306;BME280;7516;43.570;1.448;2023-04-08T04:48:37;99599.09;;;7.57;75.69
28306;BME280;7516;43.570;1.448;2023-04-08T04:51:05;99602.22;;;7.61;76.46
28306;BME280;7516;43.570;1.448;2023-04-08T04:53:33;99596.19;;;7.61;75.52
28306;BME280;7516;43.570;1.448;2023-04-08T04:56:01;99599.78;;;7.60;75.70
28306;BME280;7516;43.570;1.448;2023-04-08T04:58:28;99599.63;;;7.61;75.69
28306;BME280;7516;43.570;1.448;2023-04-08T05:00:56;99597.00;;;7.61;75.83
28306;BME280;7516;43.570;1.448;2023-04-08T05:03:23;99604.97;;;7.60;76.87
28306;BME280;7516;43.570;1.448;2023-04-08T05:05:52;99604.31;;;7.57;75.98
28306;BME280;7516;43.570;1.448;2023-04-08T05:08:20;99597.78;;;7.53;75.78
28306;BME280;7516;43.570;1.448;2023-04-08T05:10:48;99603.00;;;7.53;76.29
28306;BME280;7516;43.570;1.448;2023-04-08T05:13:16;99599.22;;;7.48;76.56
28306;BME280;7516;43.570;1.448;2023-04-08T05:15:44;99600.66;;;7.42;76.28
28306;BME280;7516;43.570;1.448;2023-04-08T05:18:11;99600.00;;;7.40;76.94
28306;BME280;7516;43.570;1.448;2023-04-08T05:20:39;99611.72;;;7.36;76.92
28306;BME280;7516;43.570;1.448;2023-04-08T05:23:08;99620.19;;;7.38;77.49
28306;BME280;7516;43.570;1.448;2023-04-08T05:25:35;99620.53;;;7.43;76.45
28306;BME280;7516;43.570;1.448;2023-04-08T05:28:03;99618.56;;;7.37;76.64
28306;BME280;7516;43.570;1.448;2023-04-08T05:30:31;99625.34;;;7.30;77.70
28306;BME280;7516;43.570;1.448;2023-04-08T05:32:58;99631.53;;;7.29;77.60
28306;BME280;7516;43.570;1.448;2023-04-08T05:35:25;99635.41;;;7.25;76.96
28306;BME280;7516;43.570;1.448;2023-04-08T05:37:53;99648.09;;;7.20;77.14
28306;BME280;7516;43.570;1.448;2023-04-08T05:40:22;99646.50;;;7.27;78.28
28306;BME280;7516;43.570;1.448;2023-04-08T05:42:49;99648.00;;;7.30;77.72
28306;BME280;7516;43.570;1.448;2023-04-08T05:45:17;99654.47;;;7.26;78.50
28306;BME280;7516;43.570;1.448;2023-04-08T05:47:45;99661.19;;;7.28;78.76
28306;BME280;7516;43.570;1.448;2023-04-08T05:50:12;99667.72;;;7.32;78.98
28306;BME280;7516;43.570;1.448;2023-04-08T05:52:42;99671.81;;;7.35;79.27
28306;BME280;7516;43.570;1.448;2023-04-08T05:55:10;99671.34;;;7.39;78.97
28306;BME280;7516;43.570;1.448;2023-04-08T05:57:39;99670.75;;;7.45;78.17
28306;BME280;7516;43.570;1.448;2023-04-08T06:00:08;99678.25;;;7.48;79.62
28306;BME280;7516;43.570;1.448;2023-04-08T06:02:36;99679.94;;;7.57;79.04
28306;BME280;7516;43.570;1.448;2023-04-08T06:05:04;99685.53;;;7.63;79.52
28306;BME280;7516;43.570;1.448;2023-04-08T06:07:32;99686.84;;;7.67;79.88
28306;BME280;7516;43.570;1.448;2023-04-08T06:10:00;99687.06;;;7.73;79.08
28306;BME280;7516;43.570;1.448;2023-04-08T06:12:27;99690.00;;;7.78;79.03
28306;BME280;7516;43.570;1.448;2023-04-08T06:14:56;99693.63;;;7.85;78.42
28306;BME280;7516;43.570;1.448;2023-04-08T06:17:24;99696.22;;;7.85;78.26
28306;BME280;7516;43.570;1.448;2023-04-08T06:19:51;99700.66;;;7.93;78.69
28306;BME280;7516;43.570;1.448;2023-04-08T06:22:19;99692.25;;;7.99;77.89
28306;BME280;7516;43.570;1.448;2023-04-08T06:24:46;99690.94;;;8.03;77.80
28306;BME280;7516;43.570;1.448;2023-04-08T06:27:14;99694.88;;;8.07;77.53
28306;BME280;7516;43.570;1.448;2023-04-08T06:29:42;99701.41;;;8.11;77.44
28306;BME280;7516;43.570;1.448;2023-04-08T06:32:10;99703.56;;;8.16;77.30
28306;BME280;7516;43.570;1.448;2023-04-08T06:34:38;99706.50;;;8.21;78.84
28306;BME280;7516;43.570;1.448;2023-04-08T06:37:06;99711.09;;;8.27;78.89
28306;BME280;7516;43.570;1.448;2023-04-08T06:39:33;99721.63;;;8.35;78.17
28306;BME280;7516;43.570;1.448;2023-04-08T06:42:01;99714.44;;;8.37;78.50
28306;BME280;7516;43.570;1.448;2023-04-08T06:44:28;99718.88;;;8.45;78.74
28306;BME280;7516;43.570;1.448;2023-04-08T06:46:56;99713.03;;;8.51;79.15
28306;BME280;7516;43.570;1.448;2023-04-08T06:49:25;99718.91;;;8.53;79.33
28306;BME280;7516;43.570;1.448;2023-04-08T06:51:53;99723.34;;;8.60;79.23
28306;BME280;7516;43.570;1.448;2023-04-08T06:54:20;99727.59;;;8.61;78.59
28306;BME280;7516;43.570;1.448;2023-04-08T06:56:48;99726.78;;;8.69;78.58
28306;BME280;7516;43.570;1.448;2023-04-08T06:59:15;99730.41;;;8.76;78.03
28306;BME280;7516;43.570;1.448;2023-04-08T07:01:43;99729.09;;;8.80;78.09
28306;BME280;7516;43.570;1.448;2023-04-08T07:04:10;99733.69;;;8.86;78.80
28306;BME280;7516;43.570;1.448;2023-04-08T07:06:39;99735.00;;;8.98;76.98
28306;BME280;7516;43.570;1.448;2023-04-08T07:09:07;99733.88;;;9.09;78.42
28306;BME280;7516;43.570;1.448;2023-04-08T07:11:34;99732.75;;;9.12;76.84
28306;BME280;7516;43.570;1.448;2023-04-08T07:14:02;99734.53;;;9.19;77.50
28306;BME280;7516;43.570;1.448;2023-04-08T07:16:29;99737.66;;;9.23;75.94
28306;BME280;7516;43.570;1.448;2023-04-08T07:18:56;99735.03;;;9.31;77.23
28306;BME280;7516;43.570;1.448;2023-04-08T07:21:24;99739.47;;;9.38;77.23
28306;BME280;7516;43.570;1.448;2023-04-08T07:23:53;99736.00;;;9.46;75.60
28306;BME280;7516;43.570;1.448;2023-04-08T07:26:26;99736.31;;;9.51;75.94
28306;BME280;7516;43.570;1.448;2023-04-08T07:28:54;99741.56;;;9.59;76.30
28306;BME280;7516;43.570;1.448;2023-04-08T07:31:21;99744.50;;;9.64;76.02
28306;BME280;7516;43.570;1.448;2023-04-08T07:33:49;99747.78;;;9.66;74.67
28306;BME280;7516;43.570;1.448;2023-04-08T07:36:16;99746.44;;;9.78;74.13
28306;BME280;7516;43.570;1.448;2023-04-08T07:38:44;99754.63;;;9.84;73.90
28306;BME280;7516;43.570;1.448;2023-04-08T07:41:13;99754.63;;;9.84;73.21
28306;BME280;7516;43.570;1.448;2023-04-08T07:43:40;99763.44;;;9.91;73.72
28306;BME280;7516;43.570;1.448;2023-04-08T07:46:08;99763.25;;;10.00;72.40
28306;BME280;7516;43.570;1.448;2023-04-08T07:48:35;99761.31;;;10.02;72.77
28306;BME280;7516;43.570;1.448;2023-04-08T07:51:04;99765.03;;;10.08;71.32
28306;BME280;7516;43.570;1.448;2023-04-08T07:53:32;99768.94;;;10.12;71.94
28306;BME280;7516;43.570;1.448;2023-04-08T07:56:00;99771.59;;;10.20;72.46
28306;BME280;7516;43.570;1.448;2023-04-08T07:58:30;99772.88;;;10.24;72.18
28306;BME280;7516;43.570;1.448;2023-04-08T08:00:58;99774.53;;;10.25;72.05
28306;BME280;7516;43.570;1.448;2023-04-08T08:03:25;99780.72;;;10.32;71.39
28306;BME280;7516;43.570;1.448;2023-04-08T08:05:53;99783.16;;;10.34;71.38
28306;BME280;7516;43.570;1.448;2023-04-08T08:08:21;99779.00;;;10.47;70.39
28306;BME280;7516;43.570;1.448;2023-04-08T08:10:48;99786.84;;;10.55;71.07
28306;BME280;7516;43.570;1.448;2023-04-08T08:13:15;99787.00;;;10.62;70.86
28306;BME280;7516;43.570;1.448;2023-04-08T08:15:51;99793.84;;;10.71;69.50
28306;BME280;7516;43.570;1.448;2023-04-08T08:18:19;99789.38;;;10.80;68.72
28306;BME280;7516;43.570;1.448;2023-04-08T08:20:47;99788.19;;;10.82;69.27
28306;BME280;7516;43.570;1.448;2023-04-08T08:23:14;99793.59;;;10.89;68.51
28306;BME280;7516;43.570;1.448;2023-04-08T08:25:42;99799.94;;;10.94;68.27
28306;BME280;7516;43.570;1.448;2023-04-08T08:28:10;99791.84;;;11.04;68.37
28306;BME280;7516;43.570;1.448;2023-04-08T08:30:37;99789.66;;;11.16;68.13
28306;BME280;7516;43.570;1.448;2023-04-08T08:33:06;99785.50;;;11.21;67.63
28306;BME280;7516;43.570;1.448;2023-04-08T08:35:33;99784.59;;;11.37;67.60
28306;BME280;7516;43.570;1.448;2023-04-08T08:38:01;99795.00;;;11.45;66.13
28306;BME280;7516;43.570;1.448;2023-04-08T08:40:28;99800.03;;;11.55;66.65
28306;BME280;7516;43.570;1.448;2023-04-08T08:42:56;99794.06;;;11.61;65.98
28306;BME280;7516;43.570;1.448;2023-04-08T08:45:26;99791.28;;;11.62;65.97
28306;BME280;7516;43.570;1.448;2023-04-08T08:47:54;99798.09;;;11.72;66.08
28306;BME280;7516;43.570;1.448;2023-04-08T08:50:23;99789.09;;;11.89;65.00
28306;BME280;7516;43.570;1.448;2023-04-08T08:52:52;99802.97;;;11.97;64.98
28306;BME280;7516;43.570;1.448;2023-04-08T08:55:20;99800.00;;;12.00;65.11
28306;BME280;7516;43.570;1.448;2023-04-08T08:57:50;99808.97;;;12.06;64.96
28306;BME280;7516;43.570;1.448;2023-04-08T09:00:17;99810.34;;;12.17;64.58
28306;BME280;7516;43.570;1.448;2023-04-08T09:02:44;99805.91;;;12.17;64.39
28306;BME280;7516;43.570;1.448;2023-04-08T09:05:12;99815.50;;;12.25;62.38
28306;BME280;7516;43.570;1.448;2023-04-08T09:07:41;99815.78;;;12.30;63.71
28306;BME280;7516;43.570;1.448;2023-04-08T09:10:09;99809.09;;;12.27;63.94
28306;BME280;7516;43.570;1.448;2023-04-08T09:15:22;99810.88;;;12.41;64.04
28306;BME280;7516;43.570;1.448;2023-04-08T09:17:50;99807.56;;;12.48;63.71
28306;BME280;7516;43.570;1.448;2023-04-08T09:20:17;99817.06;;;12.63;63.10
28306;BME280;7516;43.570;1.448;2023-04-08T09:23:00;99815.41;;;12.62;62.28
28306;BME280;7516;43.570;1.448;2023-04-08T09:25:29;99813.97;;;12.74;61.15
28306;BME280;7516;43.570;1.448;2023-04-08T09:27:57;99812.94;;;12.75;63.01
28306;BME280;7516;43.570;1.448;2023-04-08T09:30:26;99814.69;;;12.83;63.38
28306;BME280;7516;43.570;1.448;2023-04-08T09:32:55;99817.75;;;12.87;62.26
28306;BME280;7516;43.570;1.448;2023-04-08T09:35:23;99821.16;;;13.02;61.48
28306;BME280;7516;43.570;1.448;2023-04-08T09:37:51;99823.53;;;12.97;62.01
28306;BME280;7516;43.570;1.448;2023-04-08T09:40:20;99814.34;;;13.07;62.21
28306;BME280;7516;43.570;1.448;2023-04-08T09:42:50;99818.03;;;13.13;62.84
28306;BME280;7516;43.570;1.448;2023-04-08T09:45:19;99824.22;;;13.20;61.46
28306;BME280;7516;43.570;1.448;2023-04-08T09:47:55;99820.41;;;13.23;60.09
28306;BME280;7516;43.570;1.448;2023-04-08T09:50:26;99826.56;;;13.30;59.67
28306;BME280;7516;43.570;1.448;2023-04-08T09:53:00;99820.13;;;13.53;60.41
28306;BME280;7516;43.570;1.448;2023-04-08T09:55:36;99821.00;;;13.61;60.01
28306;BME280;7516;43.570;1.448;2023-04-08T09:58:10;99813.22;;;13.52;60.76
28306;BME280;7516;43.570;1.448;2023-04-08T10:00:45;99816.09;;;13.57;60.96
28306;BME280;7516;43.570;1.448;2023-04-08T10:03:25;99813.38;;;13.72;59.19
28306;BME280;7516;43.570;1.448;2023-04-08T10:05:54;99813.06;;;13.82;57.18
28306;BME280;7516;43.570;1.448;2023-04-08T10:08:23;99815.31;;;13.85;59.44
28306;BME280;7516;43.570;1.448;2023-04-08T10:10:53;99814.34;;;13.86;56.84
28306;BME280;7516;43.570;1.448;2023-04-08T10:13:21;99813.50;;;13.85;56.61
28306;BME280;7516;43.570;1.448;2023-04-08T10:15:49;99812.81;;;13.98;58.35
28306;BME280;7516;43.570;1.448;2023-04-08T10:18:30;99809.22;;;14.06;58.04
28306;BME280;7516;43.570;1.448;2023-04-08T10:20:59;99815.97;;;14.15;57.67
28306;BME280;7516;43.570;1.448;2023-04-08T10:23:53;99808.09;;;14.21;57.79
28306;BME280;7516;43.570;1.448;2023-04-08T10:26:33;99815.06;;;14.36;56.33
28306;BME280;7516;43.570;1.448;2023-04-08T10:29:30;99818.53;;;14.36;57.03
28306;BME280;7516;43.570;1.448;2023-04-08T10:31:58;99824.28;;;14.40;53.57
28306;BME280;7516;43.570;1.448;2023-04-08T10:34:26;99822.84;;;14.44;55.03
28306;BME280;7516;43.570;1.448;2023-04-08T10:36:55;99825.75;;;14.49;53.90
28306;BME280;7516;43.570;1.448;2023-04-08T10:39:24;99818.22;;;14.46;54.46
28306;BME280;7516;43.570;1.448;2023-04-08T10:41:54;99820.22;;;14.44;55.44
28306;BME280;7516;43.570;1.448;2023-04-08T10:44:24;99819.22;;;14.45;55.60
28306;BME280;7516;43.570;1.448;2023-04-08T10:46:52;99814.56;;;14.47;56.03
28306;BME280;7516;43.570;1.448;2023-04-08T10:49:20;99811.59;;;14.63;52.03
28306;BME280;7516;43.570;1.448;2023-04-08T10:51:48;99811.72;;;14.89;50.98
28306;BME280;7516;43.570;1.448;2023-04-08T10:54:16;99821.72;;;15.00;51.13
28306;BME280;7516;43.570;1.448;2023-04-08T10:56:46;99823.91;;;14.90;48.97
28306;BME280;7516;43.570;1.448;2023-04-08T10:59:16;99818.28;;;15.06;49.27
28306;BME280;7516;43.570;1.448;2023-04-08T11:01:45;99812.59;;;15.10;51.08
28306;BME280;7516;43.570;1.448;2023-04-08T11:04:17;99808.97;;;15.24;49.73
28306;BME280;7516;43.570;1.448;2023-04-08T11:06:45;99816.13;;;15.30;49.27
28306;BME280;7516;43.570;1.448;2023-04-08T11:09:14;99818.56;;;15.38;47.41
28306;BME280;7516;43.570;1.448;2023-04-08T11:11:43;99814.25;;;15.24;49.01
28306;BME280;7516;43.570;1.448;2023-04-08T11:14:11;99815.88;;;15.25;49.17
28306;BME280;7516;43.570;1.448;2023-04-08T11:16:40;99811.44;;;15.32;47.64
28306;BME280;7516;43.570;1.448;2023-04-08T11:19:08;99807.59;;;15.41;46.12
28306;BME280;7516;43.570;1.448;2023-04-08T11:21:36;99809.47;;;15.60;47.60
28306;BME280;7516;43.570;1.448;2023-04-08T11:24:09;99810.91;;;15.69;46.27
28306;BME280;7516;43.570;1.448;2023-04-08T11:26:38;99810.31;;;15.80;46.08
28306;BME280;7516;43.570;1.448;2023-04-08T11:29:10;99806.25;;;15.71;46.49
28306;BME280;7516;43.570;1.448;2023-04-08T11:31:41;99804.22;;;15.73;45.79
28306;BME280;7516;43.570;1.448;2023-04-08T11:34:08;99809.28;;;15.75;46.08
28306;BME280;7516;43.570;1.448;2023-04-08T11:36:38;99802.78;;;15.71;47.05
28306;BME280;7516;43.570;1.448;2023-04-08T11:39:08;99795.88;;;15.90;44.89
28306;BME280;7516;43.570;1.448;2023-04-08T11:41:37;99790.56;;;15.96;44.55
28306;BME280;7516;43.570;1.448;2023-04-08T11:44:05;99786.09;;;16.03;44.56
28306;BME280;7516;43.570;1.448;2023-04-08T11:46:33;99795.81;;;16.29;40.81
28306;BME280;7516;43.570;1.448;2023-04-08T11:49:04;99783.81;;;16.33;41.34
28306;BME280;7516;43.570;1.448;2023-04-08T11:51:33;99796.19;;;16.39;41.49
28306;BME280;7516;43.570;1.448;2023-04-08T11:54:03;99785.38;;;16.47;42.55
28306;BME280;7516;43.570;1.448;2023-04-08T11:56:34;99789.06;;;16.40;42.41
28306;BME280;7516;43.570;1.448;2023-04-08T11:59:12;99786.25;;;16.35;41.47
28306;BME280;7516;43.570;1.448;2023-04-08T12:01:39;99783.97;;;16.45;40.50
28306;BME280;7516;43.570;1.448;2023-04-08T12:04:13;99790.47;;;16.62;37.63
28306;BME280;7516;43.570;1.448;2023-04-08T12:06:43;99787.81;;;16.62;40.62
28306;BME280;7516;43.570;1.448;2023-04-08T12:09:12;99795.13;;;16.53;37.87
28306;BME280;7516;43.570;1.448;2023-04-08T12:11:39;99783.56;;;16.61;38.61
28306;BME280;7516;43.570;1.448;2023-04-08T12:14:07;99786.16;;;16.68;37.69
28306;BME280;7516;43.570;1.448;2023-04-08T12:16:34;99784.94;;;16.64;38.33
28306;BME280;7516;43.570;1.448;2023-04-08T12:19:02;99776.22;;;17.01;38.91
28306;BME280;7516;43.570;1.448;2023-04-08T12:21:31;99779.06;;;17.06;40.03
28306;BME280;7516;43.570;1.448;2023-04-08T12:23:59;99771.38;;;17.29;39.09
28306;BME280;7516;43.570;1.448;2023-04-08T12:26:27;99778.47;;;17.36;37.30
28306;BME280;7516;43.570;1.448;2023-04-08T12:28:54;99776.72;;;17.23;37.59
28306;BME280;7516;43.570;1.448;2023-04-08T12:31:22;99774.44;;;17.26;37.51
28306;BME280;7516;43.570;1.448;2023-04-08T12:33:49;99764.75;;;17.14;39.44
28306;BME280;7516;43.570;1.448;2023-04-08T12:36:17;99775.94;;;17.16;35.58
28306;BME280;7516;43.570;1.448;2023-04-08T12:38:46;99771.16;;;17.31;35.22
28306;BME280;7516;43.570;1.448;2023-04-08T12:41:13;99767.53;;;17.25;37.49
28306;BME280;7516;43.570;1.448;2023-04-08T12:43:41;99758.56;;;17.26;37.25
28306;BME280;7516;43.570;1.448;2023-04-08T12:46:08;99760.53;;;17.38;37.29
28306;BME280;7516;43.570;1.448;2023-04-08T12:48:35;99756.84;;;17.39;38.43
28306;BME280;7516;43.570;1.448;2023-04-08T12:51:03;99760.66;;;17.49;36.07
28306;BME280;7516;43.570;1.448;2023-04-08T12:53:30;99760.41;;;17.51;34.52
28306;BME280;7516;43.570;1.448;2023-04-08T12:55:59;99766.47;;;17.64;34.13
28306;BME280;7516;43.570;1.448;2023-04-08T12:58:27;99764.78;;;17.70;34.07
28306;BME280;7516;43.570;1.448;2023-04-08T13:00:55;99760.16;;;17.59;35.11
28306;BME280;7516;43.570;1.448;2023-04-08T13:03:23;99756.66;;;17.65;33.79
28306;BME280;7516;43.570;1.448;2023-04-08T13:05:51;99754.16;;;17.70;35.19
28306;BME280;7516;43.570;1.448;2023-04-08T13:08:18;99751.19;;;17.85;35.68
28306;BME280;7516;43.570;1.448;2023-04-08T13:10:46;99757.31;;;17.85;33.50
28306;BME280;7516;43.570;1.448;2023-04-08T13:13:14;99759.09;;;17.91;33.08
28306;BME280;7516;43.570;1.448;2023-04-08T13:15:42;99764.75;;;17.95;30.89
28306;BME280;7516;43.570;1.448;2023-04-08T13:18:10;99762.38;;;18.12;31.25
28306;BME280;7516;43.570;1.448;2023-04-08T13:20:37;99755.16;;;18.19;31.83
28306;BME280;7516;43.570;1.448;2023-04-08T13:23:05;99751.38;;;18.08;32.99
28306;BME280;7516;43.570;1.448;2023-04-08T13:25:32;99757.94;;;18.24;30.36